Time;durP1;ratioP1;P1;durP2;ratioP2;P2;SDS_P1;SDS_P2;PMS_P1;PMS_P2;Temp;Humidity;BMP_temperature;BMP_pressure;BME280_temperature;BME280_humidity;BME280_pressure;Samples;Min_cycle;Max_cycle;Signal;HPM_P1;HPM_P2
2023/08/27 00:01:23;;;;;;;29.30;17.90;;;;;;;;;;6360095;28;20601;-68
2023/08/27 00:04:27;;;;;;;26.52;17.80;;;;;;;;;;6359350;28;20300;-68
2023/08/27 00:07:31;;;;;;;31.77;17.80;;;;;;;;;;6341502;28;20296;-68
2023/08/27 00:10:35;;;;;;;32.55;18.23;;;;;;;;;;6349719;28;20297;-68
2023/08/27 00:13:40;;;;;;;31.77;19.48;;;;;;;;;;6357201;28;20459;-69
2023/08/27 00:16:44;;;;;;;26.23;17.15;;;;;;;;;;6360277;28;20281;-68
2023/08/27 00:19:48;;;;;;;26.42;17.08;;;;;;;;;;6359659;28;20292;-68
2023/08/27 00:22:52;;;;;;;28.33;17.40;;;;;;;;;;6359232;28;20305;-68
2023/08/27 00:25:55;;;;;;;26.30;16.73;;;;;;;;;;6359807;28;20297;-68
2023/08/27 00:29:01;;;;;;;24.25;16.92;;;;;;;;;;6359705;28;20292;-68
2023/08/27 00:32:05;;;;;;;24.75;15.95;;;;;;;;;;6359016;28;20313;-68
2023/08/27 00:35:27;;;;;;;24.77;16.33;;;;;;;;;;6340793;28;20468;-68
2023/08/27 00:38:31;;;;;;;24.38;16.52;;;;;;;;;;6340488;28;20309;-68
2023/08/27 00:41:35;;;;;;;22.38;15.93;;;;;;;;;;6340041;28;20585;-68
2023/08/27 00:44:41;;;;;;;23.30;16.48;;;;;;;;;;6340171;28;20312;-68
2023/08/27 00:47:45;;;;;;;25.25;16.63;;;;;;;;;;6358644;28;20293;-68
2023/08/27 00:50:49;;;;;;;28.70;17.17;;;;;;;;;;6359307;28;20293;-68
2023/08/27 00:53:53;;;;;;;25.48;16.92;;;;;;;;;;6358712;28;20289;-69
2023/08/27 00:56:57;;;;;;;25.15;15.45;;;;;;;;;;6340866;28;20410;-68
2023/08/27 01:00:03;;;;;;;25.48;16.75;;;;;;;;;;6341138;28;20289;-68
2023/08/27 01:03:07;;;;;;;21.38;15.38;;;;;;;;;;6345051;28;20292;-68
2023/08/27 01:06:10;;;;;;;22.75;15.73;;;;;;;;;;6363958;28;20545;-69
2023/08/27 01:09:21;;;;;;;25.75;15.73;;;;;;;;;;6345163;28;20296;-69
2023/08/27 01:12:31;;;;;;;20.80;15.38;;;;;;;;;;6332834;28;20290;-68
2023/08/27 01:15:37;;;;;;;20.10;14.52;;;;;;;;;;6320185;28;20297;-68
2023/08/27 01:18:41;;;;;;;23.95;15.15;;;;;;;;;;6321010;28;20294;-68
2023/08/27 01:21:48;;;;;;;20.13;14.15;;;;;;;;;;6321765;28;20466;-68
2023/08/27 01:24:52;;;;;;;20.27;13.40;;;;;;;;;;6321347;28;20289;-67
2023/08/27 01:28:04;;;;;;;19.73;13.50;;;;;;;;;;6321579;28;20298;-68
2023/08/27 01:31:10;;;;;;;20.77;13.25;;;;;;;;;;6321964;28;20289;-67
2023/08/27 01:34:16;;;;;;;16.55;12.38;;;;;;;;;;6321432;28;20589;-66
2023/08/27 01:37:21;;;;;;;19.45;14.32;;;;;;;;;;6322238;28;20299;-67
2023/08/27 01:40:26;;;;;;;20.15;13.52;;;;;;;;;;6322205;28;20290;-67
2023/08/27 01:43:30;;;;;;;17.98;12.35;;;;;;;;;;6320198;28;20301;-68
2023/08/27 01:46:34;;;;;;;14.07;11.10;;;;;;;;;;6339392;28;20312;-68
2023/08/27 01:49:38;;;;;;;15.85;10.20;;;;;;;;;;6337826;28;20365;-68
2023/08/27 01:52:43;;;;;;;16.20;9.75;;;;;;;;;;6320367;28;20302;-69
2023/08/27 01:55:47;;;;;;;9.88;8.98;;;;;;;;;;6336819;28;20290;-68
2023/08/27 01:58:51;;;;;;;9.70;8.70;;;;;;;;;;6337909;28;20321;-66
2023/08/27 02:01:55;;;;;;;10.80;7.50;;;;;;;;;;6337599;28;20464;-67
2023/08/27 02:04:59;;;;;;;8.60;6.72;;;;;;;;;;6332091;28;20321;-68
2023/08/27 02:08:05;;;;;;;7.47;6.88;;;;;;;;;;6318139;28;20522;-67
2023/08/27 02:11:08;;;;;;;7.43;6.88;;;;;;;;;;6334661;28;20272;-67
2023/08/27 02:14:12;;;;;;;7.25;6.53;;;;;;;;;;6311906;28;20306;-67
2023/08/27 02:17:16;;;;;;;7.15;6.65;;;;;;;;;;6294306;28;20316;-67
2023/08/27 02:20:20;;;;;;;8.35;6.68;;;;;;;;;;6293103;28;20299;-67
2023/08/27 02:23:25;;;;;;;7.47;6.65;;;;;;;;;;6310603;28;20294;-67
2023/08/27 02:26:29;;;;;;;6.45;6.05;;;;;;;;;;6294094;28;20294;-67
2023/08/27 02:29:33;;;;;;;6.32;5.82;;;;;;;;;;6293244;28;20442;-67
2023/08/27 02:32:37;;;;;;;6.30;5.70;;;;;;;;;;6293740;28;20290;-68
2023/08/27 02:35:40;;;;;;;6.28;5.78;;;;;;;;;;6293513;28;20559;-68
2023/08/27 02:38:46;;;;;;;6.30;5.75;;;;;;;;;;6293363;28;20302;-67
2023/08/27 02:41:50;;;;;;;6.18;5.72;;;;;;;;;;6293361;28;20310;-68
2023/08/27 02:44:53;;;;;;;8.15;5.85;;;;;;;;;;6293078;28;20294;-67
2023/08/27 02:47:57;;;;;;;6.03;5.40;;;;;;;;;;6311216;28;20302;-68
2023/08/27 02:51:01;;;;;;;5.47;5.07;;;;;;;;;;6309653;28;20590;-68
2023/08/27 02:54:07;;;;;;;4.82;4.63;;;;;;;;;;6292406;28;20307;-68
2023/08/27 02:57:10;;;;;;;5.47;5.00;;;;;;;;;;6293352;28;20293;-69
2023/08/27 03:00:14;;;;;;;5.15;4.85;;;;;;;;;;6293870;28;20294;-68
2023/08/27 03:03:18;;;;;;;4.13;4.00;;;;;;;;;;6302990;28;20314;-71
2023/08/27 03:06:22;;;;;;;4.65;4.45;;;;;;;;;;6292396;28;20301;-68
2023/08/27 03:09:28;;;;;;;4.00;3.75;;;;;;;;;;6310329;28;20766;-68
2023/08/27 03:12:31;;;;;;;4.57;4.13;;;;;;;;;;6310576;28;20303;-68
2023/08/27 03:15:35;;;;;;;4.35;4.15;;;;;;;;;;6310469;28;20290;-68
2023/08/27 03:18:39;;;;;;;4.25;3.92;;;;;;;;;;6310546;28;20290;-68
2023/08/27 03:21:43;;;;;;;4.35;4.15;;;;;;;;;;6309311;28;20294;-69
2023/08/27 03:24:50;;;;;;;4.75;4.43;;;;;;;;;;6307349;28;20294;-67
2023/08/27 03:27:54;;;;;;;4.53;4.30;;;;;;;;;;6309145;28;20565;-67
2023/08/27 03:30:57;;;;;;;4.80;4.43;;;;;;;;;;6309330;28;20298;-68
2023/08/27 03:34:01;;;;;;;3.92;3.72;;;;;;;;;;6308472;28;20313;-68
2023/08/27 03:37:05;;;;;;;4.05;3.85;;;;;;;;;;6301886;28;20299;-68
2023/08/27 03:40:11;;;;;;;3.50;3.40;;;;;;;;;;6291078;28;20290;-68
2023/08/27 03:43:15;;;;;;;3.53;3.38;;;;;;;;;;6290540;28;20286;-69
2023/08/27 03:46:19;;;;;;;3.60;3.40;;;;;;;;;;6292565;28;20289;-68
2023/08/27 03:49:23;;;;;;;3.78;3.50;;;;;;;;;;6309389;28;20293;-68
2023/08/27 03:52:27;;;;;;;3.50;3.20;;;;;;;;;;6291475;28;20575;-68
2023/08/27 03:55:33;;;;;;;2.72;2.58;;;;;;;;;;6290748;28;20327;-67
2023/08/27 03:58:37;;;;;;;3.88;3.00;;;;;;;;;;6309599;28;20309;-69
2023/08/27 04:01:41;;;;;;;2.85;2.65;;;;;;;;;;6292294;28;20294;-68
2023/08/27 04:04:44;;;;;;;2.88;2.78;;;;;;;;;;6308754;28;20306;-68
2023/08/27 04:07:48;;;;;;;2.90;2.55;;;;;;;;;;6309061;28;20333;-68
2023/08/27 04:10:54;;;;;;;3.25;2.53;;;;;;;;;;6294894;28;20290;-68
2023/08/27 04:13:58;;;;;;;2.60;2.47;;;;;;;;;;6297140;28;20294;-68
2023/08/27 04:17:02;;;;;;;2.55;2.55;;;;;;;;;;6282662;28;20292;-68
2023/08/27 04:20:08;;;;;;;3.50;2.35;;;;;;;;;;6284336;28;20290;-68
2023/08/27 04:23:13;;;;;;;3.05;2.35;;;;;;;;;;6282546;28;20433;-68
2023/08/27 04:26:19;;;;;;;2.60;2.40;;;;;;;;;;6282995;28;20275;-68
2023/08/27 04:29:22;;;;;;;3.60;2.22;;;;;;;;;;6274248;28;20298;-68
2023/08/27 04:32:26;;;;;;;2.45;2.35;;;;;;;;;;6287572;28;20338;-68
2023/08/27 04:35:30;;;;;;;2.03;1.92;;;;;;;;;;6285970;28;20298;-68
2023/08/27 04:38:34;;;;;;;1.90;1.80;;;;;;;;;;6301949;28;20298;-68
2023/08/27 04:41:40;;;;;;;1.80;1.80;;;;;;;;;;6282453;28;20575;-68
2023/08/27 04:44:44;;;;;;;1.70;1.70;;;;;;;;;;6282935;28;20294;-68
2023/08/27 04:47:48;;;;;;;2.08;1.67;;;;;;;;;;6283510;28;20471;-68
2023/08/27 04:50:52;;;;;;;1.90;1.80;;;;;;;;;;6284372;28;20294;-68
2023/08/27 04:53:56;;;;;;;1.90;1.85;;;;;;;;;;6282507;28;20291;-68
2023/08/27 04:57:02;;;;;;;1.65;1.65;;;;;;;;;;6282853;28;20295;-68
2023/08/27 05:00:08;;;;;;;1.75;1.67;;;;;;;;;;6283120;28;20543;-68
2023/08/27 05:03:12;;;;;;;1.90;1.90;;;;;;;;;;6283770;28;20295;-69
2023/08/27 05:06:20;;;;;;;2.45;2.03;;;;;;;;;;6282596;28;20488;-68
2023/08/27 05:09:24;;;;;;;1.83;1.73;;;;;;;;;;6281975;28;20354;-68
2023/08/27 05:12:30;;;;;;;1.92;1.83;;;;;;;;;;6283624;28;20291;-68
2023/08/27 05:15:33;;;;;;;1.98;1.90;;;;;;;;;;6282055;28;20300;-68
2023/08/27 05:18:37;;;;;;;2.30;2.10;;;;;;;;;;6290204;28;20302;-68
2023/08/27 05:21:41;;;;;;;2.13;1.92;;;;;;;;;;6301676;28;20298;-67
2023/08/27 05:24:45;;;;;;;2.10;2.00;;;;;;;;;;6281508;28;20294;-68
2023/08/27 05:27:50;;;;;;;1.95;1.95;;;;;;;;;;6283425;28;20363;-68
2023/08/27 05:30:54;;;;;;;1.98;1.98;;;;;;;;;;6281562;28;20318;-68
2023/08/27 05:33:58;;;;;;;1.80;1.80;;;;;;;;;;6307997;28;20463;-68
2023/08/27 05:37:02;;;;;;;1.92;1.92;;;;;;;;;;6298907;28;20298;-67
2023/08/27 05:40:09;;;;;;;1.83;1.83;;;;;;;;;;6286724;28;20571;-68
2023/08/27 05:43:14;;;;;;;2.17;2.17;;;;;;;;;;6285871;28;20295;-68
2023/08/27 05:46:18;;;;;;;2.38;2.30;;;;;;;;;;6287701;28;20291;-67
2023/08/27 05:49:23;;;;;;;2.00;1.90;;;;;;;;;;6285807;28;20298;-67
2023/08/27 05:52:26;;;;;;;2.05;2.05;;;;;;;;;;6286714;28;20579;-67
2023/08/27 05:55:31;;;;;;;2.25;2.25;;;;;;;;;;6286476;28;20302;-67
2023/08/27 05:58:39;;;;;;;3.00;2.10;;;;;;;;;;6285331;28;20291;-67
2023/08/27 06:01:44;;;;;;;2.22;2.08;;;;;;;;;;6286325;28;20308;-67
2023/08/27 06:04:49;;;;;;;2.03;1.95;;;;;;;;;;6284283;28;20315;-68
2023/08/27 06:07:53;;;;;;;2.25;1.92;;;;;;;;;;6292985;28;20297;-67
2023/08/27 06:10:56;;;;;;;2.35;2.13;;;;;;;;;;6324988;28;20301;-67
2023/08/27 06:14:02;;;;;;;2.10;2.03;;;;;;;;;;6311850;28;20336;-67
2023/08/27 06:17:05;;;;;;;5.32;2.05;;;;;;;;;;6293518;28;20398;-67
2023/08/27 06:20:10;;;;;;;4.75;2.17;;;;;;;;;;6273806;28;20299;-67
2023/08/27 06:23:14;;;;;;;1.73;1.73;;;;;;;;;;6287455;28;20291;-70
2023/08/27 06:26:18;;;;;;;2.25;2.10;;;;;;;;;;6286392;28;20267;-67
2023/08/27 06:29:23;;;;;;;2.38;2.28;;;;;;;;;;6286769;28;20287;-68
2023/08/27 06:32:28;;;;;;;4.80;2.40;;;;;;;;;;6285901;28;20299;-68
2023/08/27 06:35:32;;;;;;;1.73;1.73;;;;;;;;;;6284871;28;20398;-68
2023/08/27 06:38:36;;;;;;;2.17;2.08;;;;;;;;;;6285178;28;20310;-68
2023/08/27 06:41:41;;;;;;;1.83;1.83;;;;;;;;;;6285127;28;20287;-68
2023/08/27 06:44:50;;;;;;;1.88;1.83;;;;;;;;;;6284646;28;20298;-68
2023/08/27 06:47:53;;;;;;;7.43;2.38;;;;;;;;;;6285207;28;20454;-68
2023/08/27 06:51:00;;;;;;;9.15;2.42;;;;;;;;;;6285158;28;20366;-67
2023/08/27 06:54:04;;;;;;;3.67;1.73;;;;;;;;;;6285049;28;20528;-68
2023/08/27 06:57:09;;;;;;;6.70;2.30;;;;;;;;;;6278529;28;20302;-68
2023/08/27 07:00:15;;;;;;;3.17;2.20;;;;;;;;;;6291921;28;20298;-68
2023/08/27 07:03:19;;;;;;;2.13;1.92;;;;;;;;;;6292652;28;20292;-68
2023/08/27 07:06:23;;;;;;;2.67;1.70;;;;;;;;;;6293014;28;20295;-68
2023/08/27 07:09:27;;;;;;;2.30;1.88;;;;;;;;;;6292407;28;20294;-68
2023/08/27 07:12:33;;;;;;;14.82;2.65;;;;;;;;;;6322389;28;20297;-68
2023/08/27 07:15:39;;;;;;;9.35;2.33;;;;;;;;;;6292314;28;20293;-67
2023/08/27 07:18:43;;;;;;;2.22;1.98;;;;;;;;;;6291603;28;20295;-67
2023/08/27 07:21:47;;;;;;;4.93;2.17;;;;;;;;;;6292239;28;20294;-68
2023/08/27 07:24:51;;;;;;;10.93;2.10;;;;;;;;;;6291776;28;20294;-68
2023/08/27 07:27:56;;;;;;;4.38;2.63;;;;;;;;;;6291964;28;20453;-68
2023/08/27 07:31:01;;;;;;;2.42;2.28;;;;;;;;;;6292358;28;20298;-68
2023/08/27 07:34:05;;;;;;;1.80;1.80;;;;;;;;;;6292369;28;20299;-68
2023/08/27 07:37:09;;;;;;;2.22;2.20;;;;;;;;;;6311130;28;20305;-67
2023/08/27 07:40:13;;;;;;;2.65;2.10;;;;;;;;;;6292137;28;20302;-68
2023/08/27 07:43:18;;;;;;;2.15;1.92;;;;;;;;;;6291584;28;20349;-69
2023/08/27 07:46:23;;;;;;;2.92;2.00;;;;;;;;;;6293347;28;20294;-68
2023/08/27 07:49:27;;;;;;;2.20;1.90;;;;;;;;;;6291073;28;20301;-67
2023/08/27 07:52:31;;;;;;;3.70;1.85;;;;;;;;;;6292390;28;20290;-66
2023/08/27 07:55:36;;;;;;;2.47;1.70;;;;;;;;;;6291597;28;20326;-68
2023/08/27 07:58:41;;;;;;;3.22;1.88;;;;;;;;;;6291741;28;20298;-68
2023/08/27 08:01:47;;;;;;;1.88;1.80;;;;;;;;;;6310159;28;20285;-67
2023/08/27 08:04:52;;;;;;;3.33;1.92;;;;;;;;;;6290576;28;20599;-68
2023/08/27 08:07:55;;;;;;;2.10;1.60;;;;;;;;;;6309655;28;20290;-68
2023/08/27 08:10:59;;;;;;;1.92;1.83;;;;;;;;;;6309931;28;20297;-68
2023/08/27 08:14:03;;;;;;;2.80;2.13;;;;;;;;;;6322733;28;20325;-68
2023/08/27 08:17:08;;;;;;;1.90;1.80;;;;;;;;;;6309662;28;20239;-68
2023/08/27 08:20:14;;;;;;;3.13;1.88;;;;;;;;;;6309036;28;20297;-67
2023/08/27 08:23:18;;;;;;;5.82;1.85;;;;;;;;;;6309049;28;20294;-68
2023/08/27 08:26:22;;;;;;;4.13;1.90;;;;;;;;;;6309266;28;20293;-68
2023/08/27 08:29:25;;;;;;;2.08;1.88;;;;;;;;;;6308813;28;20555;-69
2023/08/27 08:32:31;;;;;;;2.10;2.00;;;;;;;;;;6308977;28;20293;-67
2023/08/27 08:35:35;;;;;;;2.03;1.92;;;;;;;;;;6308637;28;20298;-67
2023/08/27 08:38:38;;;;;;;2.00;1.90;;;;;;;;;;6308666;28;20457;-68
2023/08/27 08:41:45;;;;;;;6.72;1.80;;;;;;;;;;6309416;28;20294;-69
2023/08/27 08:44:53;;;;;;;2.13;2.03;;;;;;;;;;6307891;28;20300;-68
2023/08/27 08:48:01;;;;;;;5.72;2.05;;;;;;;;;;6290848;28;20290;-68
2023/08/27 08:51:07;;;;;;;1.75;1.65;;;;;;;;;;6309246;28;20603;-67
2023/08/27 08:54:12;;;;;;;2.05;1.95;;;;;;;;;;6308660;28;20428;-67
2023/08/27 08:57:16;;;;;;;2.75;1.80;;;;;;;;;;6309222;28;20303;-70
2023/08/27 09:00:20;;;;;;;2.00;1.90;;;;;;;;;;6308705;28;20448;-68
2023/08/27 09:03:26;;;;;;;2.22;1.70;;;;;;;;;;6308680;28;20302;-68
2023/08/27 09:06:30;;;;;;;1.85;1.75;;;;;;;;;;6333673;28;20439;-68
2023/08/27 09:09:34;;;;;;;2.05;1.95;;;;;;;;;;6333594;28;20445;-68
2023/08/27 09:12:40;;;;;;;2.75;1.67;;;;;;;;;;6335805;28;20293;-70
2023/08/27 09:15:44;;;;;;;1.85;1.85;;;;;;;;;;6333922;28;20290;-68
2023/08/27 09:18:49;;;;;;;1.83;1.73;;;;;;;;;;6333522;28;20357;-67
2023/08/27 09:21:53;;;;;;;1.70;1.60;;;;;;;;;;6335222;28;20305;-67
2023/08/27 09:24:57;;;;;;;1.70;1.60;;;;;;;;;;6338714;28;20293;-68
2023/08/27 09:28:01;;;;;;;2.20;1.73;;;;;;;;;;6338211;28;20293;-68
2023/08/27 09:31:05;;;;;;;3.85;1.60;;;;;;;;;;6338902;28;20594;-68
2023/08/27 09:34:11;;;;;;;2.13;1.90;;;;;;;;;;6321424;28;20439;-66
2023/08/27 09:37:15;;;;;;;2.10;1.95;;;;;;;;;;6339465;28;20294;-68
2023/08/27 09:40:18;;;;;;;2.15;1.80;;;;;;;;;;6338830;28;20476;-68
2023/08/27 09:43:27;;;;;;;1.80;1.80;;;;;;;;;;6338730;28;20293;-68
2023/08/27 09:46:31;;;;;;;3.10;1.80;;;;;;;;;;6340036;28;20294;-67
2023/08/27 09:49:41;;;;;;;1.70;1.60;;;;;;;;;;6339457;28;20333;-68
2023/08/27 09:52:45;;;;;;;1.50;1.50;;;;;;;;;;6339786;28;20290;-68
2023/08/27 09:55:51;;;;;;;2.33;1.63;;;;;;;;;;6339048;28;20285;-68
2023/08/27 09:58:56;;;;;;;1.73;1.70;;;;;;;;;;6339502;28;20306;-68
2023/08/27 10:02:00;;;;;;;3.65;2.05;;;;;;;;;;6339414;28;20293;-68
2023/08/27 10:05:10;;;;;;;1.58;1.58;;;;;;;;;;6362856;28;20301;-70
2023/08/27 10:08:15;;;;;;;2.85;1.90;;;;;;;;;;6337846;28;20297;-69
2023/08/27 10:11:19;;;;;;;2.42;1.75;;;;;;;;;;6327749;28;20266;-68
2023/08/27 10:14:23;;;;;;;1.63;1.63;;;;;;;;;;6359839;28;20291;-67
2023/08/27 10:17:27;;;;;;;7.18;1.85;;;;;;;;;;6337870;28;20282;-68
2023/08/27 10:20:32;;;;;;;2.20;2.03;;;;;;;;;;6337346;28;20294;-69
2023/08/27 10:23:39;;;;;;;5.25;1.88;;;;;;;;;;6318397;28;20309;-66
2023/08/27 10:26:44;;;;;;;2.08;1.77;;;;;;;;;;6337918;28;20290;-67
2023/08/27 10:29:49;;;;;;;2.50;2.30;;;;;;;;;;6318745;28;20289;-67
2023/08/27 10:32:53;;;;;;;2.97;2.45;;;;;;;;;;6336251;28;20301;-69
2023/08/27 10:36:01;;;;;;;1.92;1.83;;;;;;;;;;6337127;28;20365;-70
2023/08/27 10:39:07;;;;;;;1.90;1.63;;;;;;;;;;6337186;28;20294;-68
2023/08/27 10:42:30;;;;;;;4.78;1.55;;;;;;;;;;6346659;28;20312;-68
2023/08/27 10:45:37;;;;;;;3.13;1.50;;;;;;;;;;6342823;28;20458;-67
2023/08/27 10:48:41;;;;;;;2.60;2.03;;;;;;;;;;6343286;28;20293;-67
2023/08/27 10:51:48;;;;;;;1.92;1.90;;;;;;;;;;6347599;28;20423;-68
2023/08/27 10:55:00;;;;;;;5.20;1.70;;;;;;;;;;6335987;28;20508;-69
2023/08/27 10:58:15;;;;;;;2.28;1.70;;;;;;;;;;6353715;28;20302;-68
2023/08/27 11:01:19;;;;;;;1.60;1.60;;;;;;;;;;6342132;28;20309;-68
2023/08/27 11:04:34;;;;;;;2.05;1.67;;;;;;;;;;6335300;28;20305;-67
2023/08/27 11:07:42;;;;;;;1.85;1.77;;;;;;;;;;6336566;28;20282;-68
2023/08/27 11:10:46;;;;;;;2.03;1.77;;;;;;;;;;6335670;28;20289;-68
2023/08/27 11:13:49;;;;;;;1.92;1.75;;;;;;;;;;6335649;28;20293;-68
2023/08/27 11:17:03;;;;;;;2.53;1.60;;;;;;;;;;6336590;28;20294;-67
2023/08/27 11:20:21;;;;;;;1.70;1.60;;;;;;;;;;6334481;28;20293;-68
2023/08/27 11:23:26;;;;;;;3.47;1.83;;;;;;;;;;6335369;28;20290;-68
2023/08/27 11:26:30;;;;;;;2.25;1.80;;;;;;;;;;6317498;28;20321;-68
2023/08/27 11:29:35;;;;;;;2.35;1.52;;;;;;;;;;6335492;28;20372;-68
2023/08/27 11:32:38;;;;;;;1.63;1.63;;;;;;;;;;6317619;28;20297;-68
2023/08/27 11:35:42;;;;;;;3.45;1.83;;;;;;;;;;6335473;28;20290;-68
2023/08/27 11:38:47;;;;;;;4.03;1.52;;;;;;;;;;6335302;28;20294;-68
2023/08/27 11:41:51;;;;;;;7.28;1.70;;;;;;;;;;6335556;28;20302;-68
2023/08/27 11:44:56;;;;;;;3.53;1.40;;;;;;;;;;6315688;28;20585;-69
2023/08/27 11:48:04;;;;;;;2.88;1.85;;;;;;;;;;6335003;28;20289;-68
2023/08/27 11:51:08;;;;;;;2.17;1.90;;;;;;;;;;6335721;28;20302;-68
2023/08/27 11:54:14;;;;;;;4.35;2.10;;;;;;;;;;6334616;28;20369;-67
2023/08/27 11:57:17;;;;;;;1.70;1.70;;;;;;;;;;6335374;28;20297;-70
2023/08/27 12:00:21;;;;;;;1.40;1.40;;;;;;;;;;6334783;28;20289;-68
2023/08/27 12:03:25;;;;;;;1.98;1.77;;;;;;;;;;6334853;28;20285;-69
2023/08/27 12:06:52;;;;;;;5.38;2.05;;;;;;;;;;6288309;28;20310;-68
2023/08/27 12:10:05;;;;;;;2.00;1.90;;;;;;;;;;6284374;28;20283;-67
2023/08/27 12:13:09;;;;;;;1.80;1.70;;;;;;;;;;6284450;28;20294;-67
2023/08/27 12:16:14;;;;;;;2.10;1.38;;;;;;;;;;6285019;28;20291;-69
2023/08/27 12:19:20;;;;;;;1.70;1.70;;;;;;;;;;6284594;28;20295;-69
2023/08/27 12:22:24;;;;;;;2.45;1.70;;;;;;;;;;6284833;28;20596;-70
2023/08/27 12:25:29;;;;;;;1.88;1.83;;;;;;;;;;6265918;28;20307;-69
2023/08/27 12:28:33;;;;;;;1.65;1.50;;;;;;;;;;6283556;28;20294;-69
2023/08/27 12:31:37;;;;;;;1.95;1.85;;;;;;;;;;6284559;28;20587;-69
2023/08/27 12:34:42;;;;;;;2.15;2.03;;;;;;;;;;6283852;28;20334;-68
2023/08/27 12:37:48;;;;;;;2.10;1.60;;;;;;;;;;6284028;28;20283;-69
2023/08/27 12:40:53;;;;;;;2.70;1.50;;;;;;;;;;6284684;28;20308;-68
2023/08/27 12:43:56;;;;;;;4.00;1.90;;;;;;;;;;6283867;28;20303;-68
2023/08/27 12:47:00;;;;;;;1.77;1.67;;;;;;;;;;6284644;28;20363;-67
2023/08/27 12:50:05;;;;;;;1.70;1.60;;;;;;;;;;6282922;28;20290;-68
2023/08/27 12:53:09;;;;;;;2.40;1.90;;;;;;;;;;6283934;28;20299;-69
2023/08/27 12:56:14;;;;;;;1.52;1.40;;;;;;;;;;6286387;28;20434;-68
2023/08/27 12:59:19;;;;;;;2.33;1.75;;;;;;;;;;6288858;28;20291;-71
2023/08/27 13:02:23;;;;;;;1.63;1.50;;;;;;;;;;6288952;28;20450;-68
2023/08/27 13:05:27;;;;;;;1.50;1.50;;;;;;;;;;6304120;28;20502;-68
2023/08/27 13:08:31;;;;;;;2.30;1.45;;;;;;;;;;6313543;28;20290;-67
2023/08/27 13:11:36;;;;;;;1.70;1.70;;;;;;;;;;6326077;28;20305;-67
2023/08/27 13:14:39;;;;;;;1.70;1.42;;;;;;;;;;6313469;28;20314;-67
2023/08/27 13:17:43;;;;;;;1.80;1.70;;;;;;;;;;6313986;28;20294;-68
2023/08/27 13:20:48;;;;;;;1.83;1.52;;;;;;;;;;6313388;28;20298;-66
2023/08/27 13:23:51;;;;;;;4.63;1.58;;;;;;;;;;6313602;28;20291;-68
2023/08/27 13:26:57;;;;;;;1.40;1.40;;;;;;;;;;6314053;28;20294;-68
2023/08/27 13:30:00;;;;;;;1.50;1.48;;;;;;;;;;6312316;28;20455;-68
2023/08/27 13:33:05;;;;;;;1.60;1.60;;;;;;;;;;6313128;28;20294;-68
2023/08/27 13:36:09;;;;;;;2.55;1.48;;;;;;;;;;6313063;28;20298;-67
2023/08/27 13:39:13;;;;;;;1.95;1.85;;;;;;;;;;6313038;28;20298;-66
2023/08/27 13:42:18;;;;;;;3.00;1.70;;;;;;;;;;6313350;28;20286;-69
2023/08/27 13:45:22;;;;;;;2.47;1.85;;;;;;;;;;6313273;28;20305;-68
2023/08/27 13:48:25;;;;;;;2.50;1.88;;;;;;;;;;6313132;28;20295;-68
2023/08/27 13:51:30;;;;;;;1.92;1.65;;;;;;;;;;6313596;28;20302;-68
2023/08/27 13:54:33;;;;;;;5.15;1.90;;;;;;;;;;6312829;28;20290;-68
2023/08/27 13:57:39;;;;;;;1.90;1.80;;;;;;;;;;6312928;28;20495;-68
2023/08/27 14:00:44;;;;;;;2.78;1.58;;;;;;;;;;6312753;28;20346;-68
2023/08/27 14:03:48;;;;;;;3.22;1.60;;;;;;;;;;6314129;28;20603;-68
2023/08/27 14:06:51;;;;;;;2.67;1.80;;;;;;;;;;6337653;28;20298;-68
2023/08/27 14:09:55;;;;;;;3.03;1.63;;;;;;;;;;6341592;28;20289;-69
2023/08/27 14:13:00;;;;;;;3.08;1.52;;;;;;;;;;6345104;28;20293;-67
2023/08/27 14:16:04;;;;;;;1.67;1.48;;;;;;;;;;6337881;28;20293;-66
2023/08/27 14:19:08;;;;;;;3.70;1.55;;;;;;;;;;6337441;28;20482;-67
2023/08/27 14:22:12;;;;;;;1.60;1.60;;;;;;;;;;6337674;28;20285;-66
2023/08/27 14:25:16;;;;;;;1.65;1.55;;;;;;;;;;6337508;28;20290;-67
2023/08/27 14:28:21;;;;;;;1.88;1.40;;;;;;;;;;6337026;28;20290;-67
2023/08/27 14:31:25;;;;;;;1.58;1.45;;;;;;;;;;6337525;28;20298;-67
2023/08/27 14:34:29;;;;;;;2.25;1.70;;;;;;;;;;6337022;28;20289;-69
2023/08/27 14:37:33;;;;;;;1.85;1.75;;;;;;;;;;6337437;28;20416;-67
2023/08/27 14:40:37;;;;;;;2.22;1.70;;;;;;;;;;6336863;28;20319;-67
2023/08/27 14:43:42;;;;;;;1.92;1.70;;;;;;;;;;6336351;28;20294;-69
2023/08/27 14:46:46;;;;;;;2.05;1.90;;;;;;;;;;6336751;28;20286;-68
2023/08/27 14:49:50;;;;;;;4.53;1.77;;;;;;;;;;6336671;28;20313;-68
2023/08/27 14:52:54;;;;;;;1.92;1.60;;;;;;;;;;6336645;28;20306;-68
2023/08/27 14:55:58;;;;;;;1.75;1.40;;;;;;;;;;6336907;28;20297;-69
2023/08/27 14:59:12;;;;;;;2.67;2.45;;;;;;;;;;6335702;28;20305;-68
2023/08/27 15:02:16;;;;;;;1.70;1.60;;;;;;;;;;6335357;28;20258;-68
2023/08/27 15:05:20;;;;;;;1.85;1.80;;;;;;;;;;6321193;28;20318;-67
2023/08/27 15:08:24;;;;;;;1.92;1.83;;;;;;;;;;6311122;28;20295;-68
2023/08/27 15:11:28;;;;;;;2.05;1.73;;;;;;;;;;6323764;28;20485;-69
2023/08/27 15:14:33;;;;;;;2.08;1.88;;;;;;;;;;6311439;28;20306;-69
2023/08/27 15:17:39;;;;;;;2.88;2.00;;;;;;;;;;6311472;28;20548;-68
2023/08/27 15:20:43;;;;;;;1.80;1.80;;;;;;;;;;6310773;28;20289;-67
2023/08/27 15:23:47;;;;;;;3.35;1.95;;;;;;;;;;6310666;28;20299;-68
2023/08/27 15:26:50;;;;;;;2.58;2.05;;;;;;;;;;6310928;28;20298;-68
2023/08/27 15:29:56;;;;;;;4.53;1.90;;;;;;;;;;6310300;28;20294;-67
2023/08/27 15:33:00;;;;;;;7.40;2.38;;;;;;;;;;6310224;28;20303;-68
2023/08/27 15:36:04;;;;;;;1.90;1.80;;;;;;;;;;6310423;28;20301;-68
2023/08/27 15:39:08;;;;;;;4.70;2.20;;;;;;;;;;6310038;28;20290;-68
2023/08/27 15:42:12;;;;;;;2.53;1.83;;;;;;;;;;6310279;28;20311;-68
2023/08/27 15:45:17;;;;;;;1.80;1.80;;;;;;;;;;6310021;28;20294;-68
2023/08/27 15:48:21;;;;;;;2.05;1.90;;;;;;;;;;6310073;28;20377;-67
2023/08/27 15:51:25;;;;;;;1.92;1.92;;;;;;;;;;6310136;28;20301;-68
2023/08/27 15:54:29;;;;;;;3.17;2.22;;;;;;;;;;6309555;28;20293;-68
2023/08/27 15:57:33;;;;;;;1.95;1.88;;;;;;;;;;6310362;28;20583;-67
2023/08/27 16:00:39;;;;;;;1.90;1.90;;;;;;;;;;6309900;28;20306;-67
2023/08/27 16:03:44;;;;;;;1.92;1.90;;;;;;;;;;6309164;28;20579;-67
2023/08/27 16:06:49;;;;;;;2.20;2.10;;;;;;;;;;6310184;28;20298;-67
2023/08/27 16:09:52;;;;;;;2.38;1.90;;;;;;;;;;6312655;28;20464;-67
2023/08/27 16:12:56;;;;;;;3.90;2.30;;;;;;;;;;6315413;28;20457;-68
2023/08/27 16:16:02;;;;;;;2.33;1.90;;;;;;;;;;6309675;28;20290;-68
2023/08/27 16:19:06;;;;;;;2.75;1.95;;;;;;;;;;6310194;28;20302;-69
2023/08/27 16:22:10;;;;;;;4.55;1.98;;;;;;;;;;6309873;28;20599;-68
2023/08/27 16:25:13;;;;;;;5.78;5.47;;;;;;;;;;6309019;28;20298;-67
2023/08/27 16:28:17;;;;;;;3.30;3.10;;;;;;;;;;6309439;28;20301;-67
2023/08/27 16:31:24;;;;;;;2.70;2.60;;;;;;;;;;6309084;28;20298;-68
2023/08/27 16:34:28;;;;;;;2.67;2.58;;;;;;;;;;6307612;28;20298;-67
2023/08/27 16:37:32;;;;;;;1.92;1.85;;;;;;;;;;6309600;28;20290;-68
2023/08/27 16:40:38;;;;;;;2.42;1.90;;;;;;;;;;6309177;28;20368;-67
2023/08/27 16:43:42;;;;;;;2.15;2.05;;;;;;;;;;6308931;28;20290;-67
2023/08/27 16:46:49;;;;;;;2.10;2.10;;;;;;;;;;6309541;28;20294;-68
2023/08/27 16:49:53;;;;;;;4.40;2.10;;;;;;;;;;6308684;28;20297;-67
2023/08/27 16:52:57;;;;;;;2.00;1.95;;;;;;;;;;6308448;28;20328;-68
2023/08/27 16:56:02;;;;;;;2.17;2.08;;;;;;;;;;6308210;28;20298;-69
2023/08/27 16:59:06;;;;;;;5.75;2.13;;;;;;;;;;6308728;28;20294;-68
2023/08/27 17:02:11;;;;;;;2.83;2.40;;;;;;;;;;6308918;28;20238;-68
2023/08/27 17:05:15;;;;;;;2.95;2.75;;;;;;;;;;6322963;28;20305;-67
2023/08/27 17:08:19;;;;;;;2.88;2.65;;;;;;;;;;6333806;28;20290;-68
2023/08/27 17:11:23;;;;;;;2.40;2.30;;;;;;;;;;6346686;28;20289;-68
2023/08/27 17:14:27;;;;;;;3.58;2.70;;;;;;;;;;6333860;28;20316;-67
2023/08/27 17:17:32;;;;;;;3.70;2.80;;;;;;;;;;6334058;28;20570;-69
2023/08/27 17:20:36;;;;;;;2.47;2.22;;;;;;;;;;6333508;28;20293;-68
2023/08/27 17:23:40;;;;;;;2.65;2.55;;;;;;;;;;6333451;28;20317;-67
2023/08/27 17:26:44;;;;;;;3.50;2.50;;;;;;;;;;6334127;28;20285;-66
2023/08/27 17:29:47;;;;;;;3.80;2.30;;;;;;;;;;6333416;28;20298;-68
2023/08/27 17:32:52;;;;;;;2.55;2.45;;;;;;;;;;6334116;28;20297;-70
2023/08/27 17:35:56;;;;;;;3.35;2.85;;;;;;;;;;6333798;28;20290;-68
2023/08/27 17:39:00;;;;;;;2.50;2.40;;;;;;;;;;6333023;28;20317;-68
2023/08/27 17:42:06;;;;;;;2.70;2.50;;;;;;;;;;6333832;28;20502;-69
2023/08/27 17:45:11;;;;;;;2.42;2.17;;;;;;;;;;6339403;28;20295;-68
2023/08/27 17:48:16;;;;;;;5.40;3.40;;;;;;;;;;6337723;28;20285;-67
2023/08/27 17:51:20;;;;;;;7.15;4.25;;;;;;;;;;6338158;28;20289;-68
2023/08/27 17:54:24;;;;;;;3.10;2.90;;;;;;;;;;6337962;28;20297;-68
2023/08/27 17:57:28;;;;;;;3.00;2.65;;;;;;;;;;6337925;28;20309;-69
2023/08/27 18:00:32;;;;;;;9.27;3.92;;;;;;;;;;6337550;28;20298;-67
2023/08/27 18:03:37;;;;;;;3.13;2.83;;;;;;;;;;6337334;28;20293;-69
2023/08/27 18:06:41;;;;;;;2.10;2.10;;;;;;;;;;6338362;28;20601;-69
2023/08/27 18:09:44;;;;;;;4.32;2.25;;;;;;;;;;6321814;28;20289;-68
2023/08/27 18:12:48;;;;;;;3.22;2.10;;;;;;;;;;6346423;28;20293;-68
2023/08/27 18:15:54;;;;;;;3.05;2.80;;;;;;;;;;6337957;28;20473;-68
2023/08/27 18:19:00;;;;;;;4.05;2.40;;;;;;;;;;6337420;28;20480;-68
2023/08/27 18:22:04;;;;;;;2.90;2.45;;;;;;;;;;6337835;28;20293;-68
2023/08/27 18:25:08;;;;;;;2.60;2.40;;;;;;;;;;6337332;28;20309;-68